Decoded Metar for LEBT (VALENCIA in SPAIN) (IATA:N/A) | Meteo·Mobile Aviation Weather
aviador You're here:

LEBT Decoded Metar

VALENCIA in SPAIN
Report Time2019-07-24 05:30:00
UTC Time2019-07-24 05:55:56
Flight Rules vfr VFR
Wind010° at 04 kt
Visibility9999 m
Phenomena:N/A
Clouds:N/A
Expected CloudBase > 4,400 ft AGL from Temp-Dew spread
CeilingNone
Temp20°C (ISA +5)
Dew Point09°C (49% RH)
AAT18.3°C
QNH1016 hPa
Density Alt843 ft
Elevation164 ft
Report Wrong Elevation
Raw Report
METAR LEBT 240530Z AUTO 01004KT 9999 ////// 20/09 Q1016=

Extra information for LEBT:More info

Metar Taf Metar & Taf Last 4 Metars F.Rules Stats Wind Profile Meteogram Temp Stats Metar ALERT Operation Metar Decoded Social comments